createdAt,value
2019-03-31T00:05:53.542Z,3.22
2019-03-31T00:16:55.111Z,3.22
2019-03-31T00:27:58.544Z,3.21
2019-03-31T00:39:00.077Z,3.21
2019-03-31T00:49:59.105Z,3.21
2019-03-31T01:01:01.855Z,3.21
2019-03-31T01:11:57.729Z,3.20
2019-03-31T01:23:08.175Z,3.16
2019-03-31T01:34:07.212Z,3.19
2019-03-31T01:45:07.750Z,3.19
2019-03-31T01:56:04.069Z,3.19
2019-03-31T02:07:09.134Z,3.19
2019-03-31T02:18:05.158Z,3.18
2019-03-31T02:29:03.599Z,3.18
2019-03-31T02:40:01.537Z,3.18
2019-03-31T02:51:00.611Z,3.17
2019-03-31T03:01:59.195Z,3.17
2019-03-31T03:12:59.386Z,3.17
2019-03-31T03:23:56.401Z,3.17
2019-03-31T03:34:59.023Z,3.16
2019-03-31T03:45:56.341Z,3.15
2019-03-31T03:56:54.352Z,3.15
2019-03-31T04:07:58.626Z,3.15
2019-03-31T04:19:01.708Z,3.15
2019-03-31T04:30:03.338Z,3.15
2019-03-31T04:41:07.565Z,3.14
2019-03-31T04:52:06.216Z,3.14
2019-03-31T05:03:09.207Z,3.15
2019-03-31T05:14:11.798Z,3.15
2019-03-31T05:25:11.493Z,3.15
2019-03-31T05:36:10.318Z,3.16
2019-03-31T05:47:09.235Z,3.17
2019-03-31T05:58:07.545Z,3.19
2019-03-31T06:09:08.275Z,3.20
2019-03-31T06:20:09.123Z,3.21
2019-03-31T06:31:14.797Z,3.23
2019-03-31T06:42:12.023Z,3.24
2019-03-31T06:53:11.828Z,3.25
2019-03-31T07:04:15.884Z,3.26
2019-03-31T07:15:16.455Z,3.28
2019-03-31T07:26:20.819Z,3.29
2019-03-31T07:37:26.470Z,3.30
2019-03-31T07:48:28.955Z,3.31
2019-03-31T07:59:29.342Z,3.32
2019-03-31T08:10:34.594Z,3.33
2019-03-31T08:21:33.126Z,3.34
2019-03-31T08:32:37.477Z,3.34
2019-03-31T08:43:37.798Z,3.36
2019-03-31T08:54:35.590Z,3.36
2019-03-31T09:05:37.159Z,3.37
2019-03-31T09:16:38.577Z,3.38
2019-03-31T09:27:43.090Z,3.39
2019-03-31T09:38:48.609Z,3.40
2019-03-31T09:49:45.602Z,3.41
2019-03-31T10:00:47.983Z,3.42
2019-03-31T10:11:42.048Z,3.42
2019-03-31T10:22:44.083Z,3.41
2019-03-31T10:33:45.657Z,3.39
2019-03-31T10:44:48.022Z,3.41
2019-03-31T10:55:45.273Z,3.39
2019-03-31T11:06:42.932Z,3.40
2019-03-31T11:17:43.038Z,3.40
2019-03-31T11:28:42.314Z,3.39
2019-03-31T11:39:25.776Z,3.39
2019-03-31T11:50:03.270Z,3.38
2019-03-31T12:00:46.130Z,3.39
2019-03-31T12:11:23.234Z,3.39
2019-03-31T12:21:58.700Z,3.38
2019-03-31T12:32:40.345Z,3.40
2019-03-31T12:43:18.056Z,3.39
2019-03-31T12:53:58.954Z,3.39
2019-03-31T13:04:42.534Z,3.39
2019-03-31T13:15:19.315Z,3.39
2019-03-31T13:26:01.580Z,3.38
2019-03-31T13:36:43.457Z,3.40
2019-03-31T13:47:27.451Z,3.39
2019-03-31T13:58:13.824Z,3.39
2019-03-31T14:09:02.572Z,3.39
2019-03-31T14:19:41.697Z,3.39
2019-03-31T14:30:27.387Z,3.39
2019-03-31T14:41:13.968Z,3.39
2019-03-31T14:51:52.500Z,3.39
2019-03-31T15:02:27.724Z,3.38
2019-03-31T15:13:00.695Z,3.38
2019-03-31T15:23:32.359Z,3.40
2019-03-31T15:34:09.403Z,3.39
2019-03-31T15:44:51.661Z,3.39
2019-03-31T15:55:29.147Z,3.38
2019-03-31T16:06:07.649Z,3.38
2019-03-31T16:17:05.868Z,3.41
2019-03-31T16:28:07.279Z,3.41
2019-03-31T16:39:07.488Z,3.42
2019-03-31T16:50:10.389Z,3.41
2019-03-31T17:01:13.530Z,3.41
2019-03-31T17:12:09.422Z,3.40
2019-03-31T17:23:11.017Z,3.39
2019-03-31T17:34:09.652Z,3.38
2019-03-31T17:45:06.264Z,3.38
2019-03-31T17:56:03.194Z,3.37
2019-03-31T18:07:03.260Z,3.37
2019-03-31T18:18:03.309Z,3.36
2019-03-31T18:29:00.144Z,3.36
2019-03-31T18:39:49.773Z,3.34
2019-03-31T18:50:49.703Z,3.34
2019-03-31T19:01:48.301Z,3.34
2019-03-31T19:12:45.476Z,3.34
2019-03-31T19:23:42.845Z,3.34
2019-03-31T19:34:40.637Z,3.33
2019-03-31T19:45:23.906Z,3.33
2019-03-31T19:56:16.674Z,3.33
2019-03-31T20:07:24.346Z,3.30
2019-03-31T20:18:18.710Z,3.32
2019-03-31T20:29:13.374Z,3.31
2019-03-31T20:40:15.023Z,3.31
2019-03-31T20:51:08.967Z,3.31
2019-03-31T21:02:06.017Z,3.31
2019-03-31T21:12:52.165Z,3.30
2019-03-31T21:23:51.532Z,3.30
2019-03-31T21:34:53.620Z,3.30
2019-03-31T21:45:52.794Z,3.30
2019-03-31T21:56:53.928Z,3.29
2019-03-31T22:07:56.522Z,3.29
2019-03-31T22:18:53.179Z,3.29
2019-03-31T22:29:56.319Z,3.29
2019-03-31T22:40:54.721Z,3.28
2019-03-31T22:51:51.734Z,3.28
2019-03-31T23:02:55.035Z,3.28
2019-03-31T23:13:55.648Z,3.27
2019-03-31T23:24:56.612Z,3.27
2019-03-31T23:36:00.176Z,3.26
2019-03-31T23:46:56.706Z,3.26
2019-03-31T23:57:55.407Z,3.26
